Time;durP1;ratioP1;P1;durP2;ratioP2;P2;SDS_P1;SDS_P2;PMS_P1;PMS_P2;Temp;Humidity;BMP_temperature;BMP_pressure;BME280_temperature;BME280_humidity;BME280_pressure;Samples;Min_cycle;Max_cycle;Signal;HPM_P1;HPM_P2
2022/07/02 00:01:59;;;;;;;1999.90;999.90;;;14.60;99.90;;;;;;5073195;28;20021;-70
2022/07/02 00:04:29;;;;;;;1999.90;999.90;;;14.50;99.90;;;;;;5075519;28;20467;-74
2022/07/02 00:06:54;;;;;;;1999.90;999.90;;;14.50;99.90;;;;;;5075173;28;20126;-74
2022/07/02 00:09:21;;;;;;;1999.90;999.90;;;14.50;99.90;;;;;;5075235;28;20494;-70
2022/07/02 00:11:48;;;;;;;1999.90;999.90;;;14.40;99.90;;;;;;5073644;28;20079;-70
2022/07/02 00:14:15;;;;;;;1999.90;999.90;;;14.40;99.90;;;;;;5075527;28;20032;-70
2022/07/02 00:16:45;;;;;;;1999.90;999.90;;;14.40;99.90;;;;;;5074850;28;20020;-70
2022/07/02 00:19:13;;;;;;;1999.90;999.90;;;14.30;99.90;;;;;;5075039;28;20032;-74
2022/07/02 00:21:39;;;;;;;1999.90;999.90;;;14.30;99.90;;;;;;5073744;28;20020;-70
2022/07/02 00:24:09;;;;;;;1999.90;999.90;;;14.20;99.90;;;;;;5069506;28;20035;-70
2022/07/02 00:26:40;;;;;;;1999.90;999.90;;;14.10;99.90;;;;;;5075209;28;20476;-70
2022/07/02 00:29:16;;;;;;;1999.90;999.90;;;14.10;99.90;;;;;;5074786;28;20458;-75
2022/07/02 00:31:43;;;;;;;1999.90;999.90;;;14.10;99.90;;;;;;5056951;28;20058;-74
2022/07/02 00:34:09;;;;;;;1999.90;999.90;;;14.10;99.90;;;;;;5073164;28;20024;-74
2022/07/02 00:36:36;;;;;;;1999.90;999.90;;;14.00;99.90;;;;;;5054616;28;20045;-69
2022/07/02 00:39:02;;;;;;;1999.90;999.90;;;14.00;99.90;;;;;;5067031;28;20361;-74
2022/07/02 00:41:30;;;;;;;1999.90;999.90;;;14.00;99.90;;;;;;5069530;28;20096;-75
2022/07/02 00:43:57;;;;;;;1999.90;999.90;;;13.90;99.90;;;;;;5066662;28;20025;-74
2022/07/02 00:46:25;;;;;;;1999.90;999.90;;;13.90;99.90;;;;;;5074795;28;20009;-70
2022/07/02 00:48:52;;;;;;;1999.90;999.90;;;13.90;99.90;;;;;;5055282;28;20028;-69
2022/07/02 00:51:17;;;;;;;1999.90;999.90;;;13.80;99.90;;;;;;5074393;28;20035;-70
2022/07/02 00:53:43;;;;;;;1999.90;999.90;;;13.90;99.90;;;;;;5061604;28;20394;-70
2022/07/02 00:56:09;;;;;;;1999.90;999.90;;;13.90;99.90;;;;;;5074566;28;20016;-70
2022/07/02 00:58:34;;;;;;;1999.90;999.90;;;13.80;99.90;;;;;;5074662;28;20024;-74
2022/07/02 01:01:01;;;;;;;1999.90;999.90;;;13.80;99.90;;;;;;5074077;28;20025;-70
2022/07/02 01:03:29;;;;;;;1999.90;999.90;;;13.70;99.90;;;;;;5074564;28;20119;-70
2022/07/02 01:05:56;;;;;;;1999.90;999.90;;;13.70;99.90;;;;;;5074214;28;20027;-70
2022/07/02 01:11:22;;;;;;;1999.90;999.90;;;13.60;99.90;;;;;;5035844;28;20037;-74
2022/07/02 01:13:50;;;;;;;1999.90;999.90;;;13.60;99.90;;;;;;5061976;28;20395;-70
2022/07/02 01:16:15;;;;;;;1999.90;999.90;;;13.60;99.90;;;;;;5073952;28;20025;-70
2022/07/02 01:18:41;;;;;;;1999.90;999.90;;;13.60;99.90;;;;;;5074033;28;20403;-70
2022/07/02 01:21:06;;;;;;;1999.90;999.90;;;13.60;99.90;;;;;;5065544;28;20028;-70
2022/07/02 01:23:32;;;;;;;1999.90;999.90;;;13.50;99.90;;;;;;5069333;28;20024;-74
2022/07/02 01:25:58;;;;;;;1999.90;999.90;;;13.50;99.90;;;;;;5074408;28;20028;-74
2022/07/02 01:28:23;;;;;;;1999.90;999.90;;;13.50;99.90;;;;;;5073855;28;20471;-70
2022/07/02 01:30:51;;;;;;;1999.90;999.90;;;13.50;99.90;;;;;;5073790;28;20071;-74
2022/07/02 01:33:16;;;;;;;1999.90;999.90;;;13.50;99.90;;;;;;5073371;28;20032;-74
2022/07/02 01:35:42;;;;;;;1999.90;999.90;;;13.50;99.90;;;;;;5073638;28;20035;-74
2022/07/02 01:38:08;;;;;;;1999.90;999.90;;;13.50;99.90;;;;;;5067843;28;20037;-74
2022/07/02 01:40:33;;;;;;;1999.90;999.90;;;13.50;99.90;;;;;;5053710;28;20033;-69
2022/07/02 01:42:59;;;;;;;1999.90;999.90;;;13.40;99.90;;;;;;5050822;28;20475;-69
2022/07/02 01:45:25;;;;;;;1999.90;999.90;;;13.40;99.90;;;;;;5068186;28;20037;-74
2022/07/02 01:47:51;;;;;;;1999.90;999.90;;;13.40;99.90;;;;;;5073358;28;20036;-74
2022/07/02 01:50:16;;;;;;;1999.90;999.90;;;13.30;99.90;;;;;;5072839;28;20111;-74
2022/07/02 01:52:42;;;;;;;1999.90;999.90;;;13.30;99.90;;;;;;5065370;28;20456;-71
2022/07/02 01:55:08;;;;;;;1999.90;999.90;;;13.30;99.90;;;;;;5067931;28;20025;-74
2022/07/02 01:57:35;;;;;;;1999.90;999.90;;;13.40;99.90;;;;;;5073435;28;20037;-74
2022/07/02 02:00:10;;;;;;;1999.90;999.90;;;13.40;99.90;;;;;;5072944;28;20028;-74
2022/07/02 02:02:36;;;;;;;1999.90;999.90;;;13.30;99.90;;;;;;5073327;28;20028;-74
2022/07/02 02:05:01;;;;;;;1999.90;999.90;;;13.30;99.90;;;;;;5073042;28;20024;-74
2022/07/02 02:07:28;;;;;;;1999.90;999.90;;;13.30;99.90;;;;;;5072883;28;20063;-69
2022/07/02 02:09:54;;;;;;;1999.90;999.90;;;13.30;99.90;;;;;;5072963;28;20028;-74
2022/07/02 02:12:20;;;;;;;1999.90;999.90;;;13.20;99.90;;;;;;5072898;28;20032;-74
2022/07/02 02:14:46;;;;;;;1999.90;999.90;;;13.20;99.90;;;;;;5073140;28;20052;-74
2022/07/02 02:17:11;;;;;;;1999.90;999.90;;;13.20;99.90;;;;;;5055037;28;20129;-74
2022/07/02 02:19:37;;;;;;;1999.90;999.90;;;13.20;99.90;;;;;;5072762;28;20025;-69
2022/07/02 02:22:03;;;;;;;1999.90;999.90;;;13.10;99.90;;;;;;5053864;28;20119;-74
2022/07/02 02:24:29;;;;;;;1999.90;999.90;;;13.10;99.90;;;;;;5057127;28;20119;-70
2022/07/02 02:26:54;;;;;;;1999.90;999.90;;;13.10;99.90;;;;;;5052884;28;20500;-74
2022/07/02 02:29:20;;;;;;;1999.90;999.90;;;13.00;99.90;;;;;;5052855;28;20052;-74
2022/07/02 02:31:45;;;;;;;1999.90;999.90;;;13.00;99.90;;;;;;5052857;28;20082;-70
2022/07/02 02:34:11;;;;;;;1999.90;999.90;;;13.00;99.90;;;;;;5065070;28;20031;-69
2022/07/02 02:36:37;;;;;;;1999.90;999.90;;;13.00;99.90;;;;;;5052747;28;20076;-74
2022/07/02 02:39:02;;;;;;;1999.90;999.90;;;13.10;99.90;;;;;;5065271;28;20056;-74
2022/07/02 02:41:28;;;;;;;1999.90;999.90;;;13.20;99.90;;;;;;5067697;28;20048;-74
2022/07/02 02:43:54;;;;;;;1999.90;999.90;;;13.20;99.90;;;;;;5055267;28;20052;-74
2022/07/02 02:46:19;;;;;;;1999.90;999.90;;;13.20;99.90;;;;;;5072636;28;20056;-70
2022/07/02 02:48:45;;;;;;;1999.90;999.90;;;13.20;99.90;;;;;;5072587;28;20032;-71
2022/07/02 02:51:14;;;;;;;1999.90;999.90;;;13.20;99.90;;;;;;5072132;28;20070;-74
2022/07/02 02:53:42;;;;;;;1999.90;999.90;;;13.20;99.90;;;;;;5072595;28;20036;-74
2022/07/02 02:56:08;;;;;;;1999.90;999.90;;;13.20;99.90;;;;;;5072796;28;20068;-70
2022/07/02 02:58:34;;;;;;;1999.90;999.90;;;13.20;99.90;;;;;;5072648;28;20017;-70
2022/07/02 03:00:59;;;;;;;1999.90;999.90;;;13.20;99.90;;;;;;5072273;28;20472;-70
2022/07/02 03:03:25;;;;;;;1999.90;999.90;;;13.20;99.90;;;;;;5072383;28;20073;-74
2022/07/02 03:05:51;;;;;;;1999.90;999.90;;;13.20;99.90;;;;;;5066764;28;20025;-74
2022/07/02 03:08:17;;;;;;;1999.90;999.90;;;13.10;99.90;;;;;;5051269;28;20026;-74
2022/07/02 03:10:43;;;;;;;1999.90;999.90;;;13.20;99.90;;;;;;5052046;28;20052;-70
2022/07/02 03:13:08;;;;;;;1999.90;999.90;;;13.10;99.90;;;;;;5065045;28;20070;-70
2022/07/02 03:15:34;;;;;;;1999.90;999.90;;;13.20;99.90;;;;;;5052681;28;20064;-69
2022/07/02 03:18:00;;;;;;;1999.90;999.90;;;13.20;99.90;;;;;;5051997;28;20029;-74
2022/07/02 03:20:26;;;;;;;1999.90;999.90;;;13.20;99.90;;;;;;5061405;28;20036;-74
2022/07/02 03:22:52;;;;;;;1999.90;999.90;;;13.20;99.90;;;;;;5068309;28;20103;-74
2022/07/02 03:25:17;;;;;;;1999.90;999.90;;;13.20;99.90;;;;;;5072236;28;20031;-71
2022/07/02 03:27:43;;;;;;;1999.90;999.90;;;13.20;99.90;;;;;;5054126;28;20492;-70
2022/07/02 03:30:09;;;;;;;1999.90;999.90;;;13.20;99.90;;;;;;5072142;28;20033;-74
2022/07/02 03:32:35;;;;;;;1999.90;999.90;;;13.20;99.90;;;;;;5071673;28;20009;-74
2022/07/02 03:35:00;;;;;;;1999.90;999.90;;;13.10;99.90;;;;;;5062452;28;20059;-74
2022/07/02 03:37:28;;;;;;;1999.90;999.90;;;13.00;99.90;;;;;;5033928;28;20075;-70
2022/07/02 03:39:54;;;;;;;1999.90;999.90;;;13.00;99.90;;;;;;5071765;28;20036;-70
2022/07/02 03:42:20;;;;;;;1999.90;999.90;;;12.90;99.90;;;;;;5059377;28;20014;-74
2022/07/02 03:44:45;;;;;;;1999.90;999.90;;;12.80;99.90;;;;;;5070814;28;20589;-74
2022/07/02 03:47:11;;;;;;;1999.90;999.90;;;12.80;99.90;;;;;;5076024;28;20028;-74
2022/07/02 03:49:37;;;;;;;1999.90;999.90;;;12.80;99.90;;;;;;5057963;28;20517;-74
2022/07/02 03:52:03;;;;;;;1999.90;999.90;;;12.80;99.90;;;;;;5071685;28;20056;-70
2022/07/02 03:54:29;;;;;;;1999.90;999.90;;;12.70;99.90;;;;;;5064892;28;20032;-74
2022/07/02 03:56:55;;;;;;;1999.90;999.90;;;12.70;99.90;;;;;;5075684;28;20753;-74
2022/07/02 03:59:20;;;;;;;1999.90;999.90;;;12.70;99.90;;;;;;5074008;28;20028;-74
2022/07/02 04:01:46;;;;;;;1999.90;999.90;;;12.70;99.90;;;;;;5072136;28;20056;-74
2022/07/02 04:04:12;;;;;;;1999.90;999.90;;;12.70;99.90;;;;;;5075355;28;20036;-70
2022/07/02 04:06:38;;;;;;;1999.90;999.90;;;12.60;99.90;;;;;;5075603;28;20025;-70
2022/07/02 04:09:04;;;;;;;1999.90;999.90;;;12.70;99.90;;;;;;5058272;28;20377;-74
2022/07/02 04:11:29;;;;;;;1999.90;999.90;;;12.70;99.90;;;;;;5071770;28;20059;-74
2022/07/02 04:13:55;;;;;;;1999.90;999.90;;;12.60;99.90;;;;;;5066380;28;20098;-74
2022/07/02 04:16:20;;;;;;;1999.90;999.90;;;12.60;99.90;;;;;;5076061;28;20029;-70
2022/07/02 04:18:46;;;;;;;1999.90;999.90;;;12.60;99.90;;;;;;5075764;28;20032;-69
2022/07/02 04:21:12;;;;;;;1999.90;999.90;;;12.60;99.90;;;;;;5067584;28;20100;-69
2022/07/02 04:23:38;;;;;;;1999.90;999.90;;;12.60;99.90;;;;;;5049471;28;20025;-74
2022/07/02 04:26:05;;;;;;;1999.90;999.90;;;12.60;99.90;;;;;;5076787;28;20028;-69
2022/07/02 04:28:31;;;;;;;1999.90;999.90;;;12.60;99.90;;;;;;5057479;28;20063;-74
2022/07/02 04:30:57;;;;;;;1999.90;999.90;;;12.60;99.90;;;;;;5074717;28;20025;-69
2022/07/02 04:33:23;;;;;;;1999.90;999.90;;;12.60;99.90;;;;;;5074577;28;20028;-70
2022/07/02 04:35:48;;;;;;;1999.90;999.90;;;12.60;99.90;;;;;;5058803;28;20024;-74
2022/07/02 04:38:14;;;;;;;1999.90;999.90;;;12.60;99.90;;;;;;5060507;28;20139;-69
2022/07/02 04:40:40;;;;;;;1999.90;999.90;;;12.60;99.90;;;;;;5074705;28;20650;-74
2022/07/02 04:43:05;;;;;;;1999.90;999.90;;;12.60;99.90;;;;;;5069614;28;20025;-70
2022/07/02 04:45:31;;;;;;;1999.90;999.90;;;12.60;99.90;;;;;;5071191;28;20024;-73
2022/07/02 04:47:56;;;;;;;1999.90;999.90;;;12.70;99.90;;;;;;5074720;28;20100;-74
2022/07/02 04:50:22;;;;;;;1999.90;999.90;;;12.60;99.90;;;;;;5074702;28;20028;-74
2022/07/02 04:52:48;;;;;;;1999.90;999.90;;;12.70;99.90;;;;;;5064274;28;20403;-74
2022/07/02 04:55:15;;;;;;;1999.90;999.90;;;12.70;99.90;;;;;;5069858;28;20040;-69
2022/07/02 04:57:41;;;;;;;1999.90;999.90;;;12.70;99.90;;;;;;5073734;28;20032;-69
2022/07/02 05:00:07;;;;;;;1999.90;999.90;;;12.80;99.90;;;;;;5074221;28;20016;-69
2022/07/02 05:02:34;;;;;;;1999.90;999.90;;;12.80;99.90;;;;;;5074482;28;20025;-74
2022/07/02 05:05:00;;;;;;;1999.90;999.90;;;12.90;99.90;;;;;;5074378;28;20541;-74
2022/07/02 05:07:25;;;;;;;1999.90;999.90;;;12.90;99.90;;;;;;5073978;28;20032;-74
2022/07/02 05:09:51;;;;;;;1999.90;999.90;;;12.90;99.90;;;;;;5074425;28;20029;-70
2022/07/02 05:12:17;;;;;;;1999.90;999.90;;;13.00;99.90;;;;;;5068132;28;20039;-69
2022/07/02 05:14:42;;;;;;;1999.90;999.90;;;13.00;99.90;;;;;;5070417;28;20069;-74
2022/07/02 05:17:08;;;;;;;1999.90;999.90;;;13.10;99.90;;;;;;5073921;28;20036;-74
2022/07/02 05:19:34;;;;;;;1999.90;999.90;;;13.20;99.90;;;;;;5074064;28;20021;-74
2022/07/02 05:21:59;;;;;;;1999.90;999.90;;;13.20;99.90;;;;;;5062380;28;20021;-69
2022/07/02 05:24:25;;;;;;;1999.90;999.90;;;13.30;99.90;;;;;;5054071;28;20029;-69
2022/07/02 05:26:51;;;;;;;1999.90;999.90;;;13.40;99.90;;;;;;5053896;28;20029;-74
2022/07/02 05:29:16;;;;;;;1999.90;999.90;;;13.60;99.90;;;;;;5053979;28;20104;-74
2022/07/02 05:31:42;;;;;;;1999.90;999.90;;;13.70;99.90;;;;;;5054164;28;20095;-74
2022/07/02 05:34:07;;;;;;;1999.90;999.90;;;13.90;99.90;;;;;;5061684;28;20502;-69
2022/07/02 05:36:33;;;;;;;1999.90;999.90;;;14.00;99.90;;;;;;5066095;28;20072;-69
2022/07/02 05:38:59;;;;;;;1999.90;999.90;;;14.10;99.90;;;;;;5061131;28;20104;-74
2022/07/02 05:41:24;;;;;;;1999.90;999.90;;;14.20;99.90;;;;;;5059750;28;20074;-69
2022/07/02 05:43:50;;;;;;;1999.90;999.90;;;14.30;99.90;;;;;;5064452;28;20025;-74
2022/07/02 05:46:16;;;;;;;1999.90;999.90;;;14.40;99.90;;;;;;5073601;28;20029;-74
2022/07/02 05:48:41;;;;;;;1999.90;999.90;;;14.50;99.90;;;;;;5073491;28;20028;-70
2022/07/02 05:51:07;;;;;;;1999.90;999.90;;;14.60;99.90;;;;;;5073440;28;20032;-70
2022/07/02 05:53:33;;;;;;;1999.90;999.90;;;14.70;99.90;;;;;;5059412;28;20021;-70
2022/07/02 05:55:58;;;;;;;1999.90;999.90;;;14.70;99.90;;;;;;5073320;28;20062;-74
2022/07/02 05:58:24;;;;;;;1999.90;999.90;;;14.80;99.90;;;;;;5055323;28;20024;-74
2022/07/02 06:00:50;;;;;;;1999.90;999.90;;;14.90;99.90;;;;;;5073177;28;20024;-69
2022/07/02 06:03:15;;;;;;;1999.90;999.90;;;15.00;99.90;;;;;;5073200;28;20029;-70
2022/07/02 06:08:25;;;;;;;1999.90;999.90;;;15.20;99.90;;;;;;5072602;28;20085;-74
2022/07/02 06:10:52;;;;;;;1999.90;999.90;;;15.30;99.90;;;;;;5072912;28;20103;-74
2022/07/02 06:13:18;;;;;;;1999.90;999.90;;;15.40;99.90;;;;;;5072973;28;20017;-69
2022/07/02 06:15:44;;;;;;;1999.90;999.90;;;15.50;99.90;;;;;;5073177;28;20028;-70
2022/07/02 06:18:12;;;;;;;1999.90;999.90;;;15.60;99.90;;;;;;5072704;28;20056;-74
2022/07/02 06:20:38;;;;;;;1999.90;999.90;;;15.70;99.90;;;;;;5065323;28;20100;-74
2022/07/02 06:23:03;;;;;;;1999.90;999.90;;;15.80;99.90;;;;;;5052574;28;20055;-69
2022/07/02 06:25:29;;;;;;;1999.90;999.90;;;16.00;99.90;;;;;;5053269;28;20060;-74
2022/07/02 06:27:54;;;;;;;1999.90;999.90;;;16.10;99.90;;;;;;5038585;28;20025;-70
2022/07/02 06:30:20;;;;;;;1999.90;999.90;;;16.20;99.90;;;;;;5073041;28;20039;-74
2022/07/02 06:32:48;;;;;;;1999.90;999.90;;;16.40;99.90;;;;;;5072705;28;20029;-70
2022/07/02 06:35:14;;;;;;;1999.90;999.90;;;16.50;99.90;;;;;;5062062;28;20484;-74
2022/07/02 06:37:39;;;;;;;1999.90;999.90;;;16.50;99.90;;;;;;5054120;28;20053;-74
2022/07/02 06:40:06;;;;;;;1999.90;999.90;;;16.70;99.90;;;;;;5070251;28;20036;-69
2022/07/02 06:42:32;;;;;;;1999.90;999.90;;;16.80;99.90;;;;;;5058433;28;20025;-70
2022/07/02 06:44:58;;;;;;;1999.90;999.90;;;16.90;99.90;;;;;;5072857;28;20028;-74
2022/07/02 06:47:25;;;;;;;1999.90;999.90;;;17.00;99.90;;;;;;5072613;28;20103;-74
2022/07/02 06:49:53;;;;;;;1999.90;999.90;;;17.20;99.90;;;;;;5072768;28;20495;-74
2022/07/02 06:52:19;;;;;;;1999.90;999.90;;;17.30;99.90;;;;;;5048576;28;20032;-69
2022/07/02 06:54:45;;;;;;;1999.90;999.90;;;17.40;99.90;;;;;;5061908;28;20175;-70
2022/07/02 06:57:11;;;;;;;1999.90;999.90;;;17.60;99.90;;;;;;5052502;28;20597;-69
2022/07/02 06:59:37;;;;;;;1999.90;999.90;;;17.80;99.90;;;;;;5052342;28;20029;-74
2022/07/02 07:02:03;;;;;;;1999.90;999.90;;;17.90;99.90;;;;;;5070039;28;20021;-69
2022/07/02 07:04:30;;;;;;;1999.90;999.90;;;18.10;99.90;;;;;;5051460;28;20384;-74
2022/07/02 07:06:56;;;;;;;1999.90;999.90;;;18.20;99.90;;;;;;5070763;28;20099;-70
2022/07/02 07:09:26;;;;;;;1999.90;999.90;;;18.40;99.90;;;;;;5072452;28;20494;-69
2022/07/02 07:11:51;;;;;;;1999.90;999.90;;;18.50;99.90;;;;;;5071921;28;20056;-74
2022/07/02 07:14:18;;;;;;;1999.90;999.90;;;18.70;99.90;;;;;;5071484;28;20483;-70
2022/07/02 07:16:44;;;;;;;1999.90;999.90;;;18.80;99.90;;;;;;5072188;28;20480;-75
2022/07/02 07:19:10;;;;;;;1999.90;999.90;;;19.00;99.90;;;;;;5072444;28;20017;-69
2022/07/02 07:21:37;;;;;;;1999.90;999.90;;;19.10;99.90;;;;;;5059627;28;20495;-70
2022/07/02 07:24:04;;;;;;;1999.90;999.90;;;19.30;99.90;;;;;;5055928;28;20021;-70
2022/07/02 07:26:29;;;;;;;1999.90;999.90;;;19.50;99.90;;;;;;5056279;28;20484;-74
2022/07/02 07:28:55;;;;;;;1999.90;999.90;;;19.70;99.90;;;;;;5055451;28;20036;-70
2022/07/02 07:31:21;;;;;;;1999.90;999.90;;;19.90;99.90;;;;;;5056167;28;20032;-70
2022/07/02 07:33:51;;;;;;;1999.90;999.90;;;20.20;99.90;;;;;;5057589;28;20032;-70
2022/07/02 07:36:18;;;;;;;1999.90;999.90;;;21.10;99.90;;;;;;5075851;28;20033;-75
2022/07/02 07:38:44;;;;;;;1999.90;999.90;;;23.80;97.30;;;;;;5065507;28;20074;-70
2022/07/02 07:41:10;;;;;;;1999.90;999.90;;;26.00;94.50;;;;;;5060262;28;20029;-70
2022/07/02 07:43:36;;;;;;;1999.90;999.90;;;27.30;91.90;;;;;;5067131;28;20029;-71
2022/07/02 07:46:01;;;;;;;1999.90;999.90;;;28.10;91.20;;;;;;5075165;28;20150;-70
2022/07/02 07:48:27;;;;;;;1999.90;999.90;;;28.50;89.30;;;;;;5076055;28;20487;-75
2022/07/02 07:50:53;;;;;;;1999.90;999.90;;;28.70;87.70;;;;;;5075738;28;20036;-75
2022/07/02 07:53:18;;;;;;;1999.90;999.90;;;29.20;87.50;;;;;;5061768;28;20025;-75
2022/07/02 07:55:45;;;;;;;1999.90;999.90;;;29.50;87.20;;;;;;5075262;28;20479;-68
2022/07/02 07:58:11;;;;;;;1999.90;999.90;;;29.90;87.00;;;;;;5075940;28;20029;-68
2022/07/02 08:00:37;;;;;;;1999.90;999.90;;;29.60;85.00;;;;;;5075024;28;20109;-73
2022/07/02 08:03:02;;;;;;;1999.90;999.90;;;29.20;85.50;;;;;;5057624;28;20040;-72
2022/07/02 08:05:28;;;;;;;1999.90;999.90;;;29.50;83.80;;;;;;5075430;28;20074;-73
2022/07/02 08:07:54;;;;;;;1999.90;999.90;;;29.90;82.80;;;;;;5075472;28;20013;-73
2022/07/02 08:10:19;;;;;;;1999.90;999.90;;;30.20;81.30;;;;;;5075217;28;20103;-68
2022/07/02 08:12:47;;;;;;;1999.90;999.90;;;31.00;81.40;;;;;;5075362;28;20100;-68
2022/07/02 08:15:13;;;;;;;1999.90;999.90;;;31.70;80.00;;;;;;5075291;28;20487;-73
2022/07/02 08:17:39;;;;;;;1999.90;999.90;;;32.10;78.60;;;;;;5075071;28;20099;-69
2022/07/02 08:20:07;;;;;;;1999.90;999.90;;;32.20;77.50;;;;;;5074915;28;20182;-74
2022/07/02 08:22:34;;;;;;;1999.90;999.90;;;32.00;76.90;;;;;;5074392;28;20467;-68
2022/07/02 08:25:00;;;;;;;1999.90;999.90;;;31.90;77.30;;;;;;5075040;28;20035;-73
2022/07/02 08:27:25;;;;;;;1999.90;999.90;;;32.40;76.70;;;;;;5075197;28;20108;-68
2022/07/02 08:29:52;;;;;;;1999.90;999.90;;;33.30;76.40;;;;;;5075034;28;20146;-73
2022/07/02 08:32:18;;;;;;;1999.90;999.90;;;33.50;74.90;;;;;;5073636;28;20024;-73
2022/07/02 08:34:43;;;;;;;1999.90;999.90;;;34.00;75.30;;;;;;5074619;28;20101;-73
2022/07/02 08:37:09;;;;;;;1999.90;999.90;;;34.30;74.20;;;;;;5074486;28;20143;-69
2022/07/02 08:39:35;;;;;;;1999.90;999.90;;;33.80;74.60;;;;;;5057483;28;20082;-69
2022/07/02 08:42:01;;;;;;;1999.90;999.90;;;33.30;76.10;;;;;;5066061;28;20025;-73
2022/07/02 08:44:28;;;;;;;1999.90;999.90;;;33.30;76.20;;;;;;5064380;28;20483;-74
2022/07/02 08:46:54;;;;;;;1999.90;999.90;;;34.00;74.20;;;;;;5074926;28;20025;-74
2022/07/02 08:49:21;;;;;;;1999.90;999.90;;;34.70;75.80;;;;;;5074575;28;20029;-69
2022/07/02 08:54:21;;;;;;;1999.90;999.90;;;35.00;71.50;;;;;;5065011;28;20036;-68
2022/07/02 08:56:48;;;;;;;1999.90;999.90;;;33.70;72.30;;;;;;5065927;28;20027;-74
2022/07/02 08:59:16;;;;;;;1999.90;999.90;;;32.80;73.20;;;;;;5074360;28;20037;-74
2022/07/02 09:01:42;;;;;;;1999.90;999.90;;;33.40;73.10;;;;;;5074394;28;20534;-68
2022/07/02 09:04:08;;;;;;;1999.90;999.90;;;34.70;75.70;;;;;;5070685;28;20056;-69
2022/07/02 09:06:37;;;;;;;1999.90;999.90;;;35.40;71.80;;;;;;5074448;28;20047;-69
2022/07/02 09:09:02;;;;;;;1999.90;999.90;;;35.10;73.10;;;;;;5039770;28;20024;-74
2022/07/02 09:11:30;;;;;;;1999.90;999.90;;;34.60;72.70;;;;;;5074199;28;20123;-69
2022/07/02 09:13:57;;;;;;;1999.90;999.90;;;35.40;72.80;;;;;;5074575;28;20040;-69
2022/07/02 09:16:23;;;;;;;1999.90;999.90;;;35.70;71.70;;;;;;5073754;28;20029;-69
2022/07/02 09:18:48;;;;;;;1999.90;999.90;;;36.00;70.90;;;;;;5073967;28;20028;-68
2022/07/02 09:21:14;;;;;;;1999.90;999.90;;;36.20;70.90;;;;;;5073353;28;20047;-69
2022/07/02 09:23:47;;;;;;;1999.90;999.90;;;36.20;69.80;;;;;;5073745;28;20028;-74
2022/07/02 09:26:21;;;;;;;1999.90;999.90;;;36.50;68.90;;;;;;5055958;28;20033;-74
2022/07/02 09:29:00;;;;;;;1999.90;999.90;;;36.10;71.50;;;;;;5073742;28;20031;-69
2022/07/02 09:31:29;;;;;;;1999.90;999.90;;;35.90;68.80;;;;;;5073821;28;20427;-74
2022/07/02 09:33:56;;;;;;;1999.90;999.90;;;35.90;69.80;;;;;;5047714;28;20399;-74
2022/07/02 09:36:23;;;;;;;1999.90;999.90;;;36.00;68.60;;;;;;5073623;28;20044;-74
2022/07/02 09:38:53;;;;;;;1999.90;999.90;;;35.30;69.10;;;;;;5062503;28;20021;-74
2022/07/02 09:41:21;;;;;;;1999.90;999.90;;;35.70;71.40;;;;;;5066894;28;20071;-69
2022/07/02 09:43:59;;;;;;;1999.90;999.90;;;35.90;70.00;;;;;;5064011;28;20045;-74
2022/07/02 09:46:25;;;;;;;1999.90;999.90;;;36.20;67.70;;;;;;5073717;28;20048;-74
2022/07/02 09:48:51;;;;;;;1999.90;999.90;;;36.00;68.00;;;;;;5073266;28;20029;-74
2022/07/02 09:51:17;;;;;;;1999.90;999.90;;;35.10;68.50;;;;;;5073433;28;20024;-73
2022/07/02 09:53:54;;;;;;;1999.90;999.90;;;34.00;69.60;;;;;;5059617;28;20071;-69
2022/07/02 09:56:22;;;;;;;1999.90;999.90;;;33.50;70.60;;;;;;5073614;28;20099;-73
2022/07/02 09:58:49;;;;;;;1999.90;999.90;;;33.20;71.70;;;;;;5073225;28;20020;-74
2022/07/02 10:01:22;;;;;;;1999.90;999.90;;;33.40;73.00;;;;;;5073282;28;20016;-74
2022/07/02 10:03:52;;;;;;;1999.90;999.90;;;34.00;72.30;;;;;;5073151;28;20058;-74
2022/07/02 10:06:19;;;;;;;1999.90;999.90;;;34.60;70.40;;;;;;5073582;28;20487;-73
2022/07/02 10:08:45;;;;;;;1999.90;999.90;;;35.30;71.50;;;;;;5072894;28;20082;-74
2022/07/02 10:11:12;;;;;;;1999.90;999.90;;;35.20;70.80;;;;;;5072757;28;20031;-68
2022/07/02 10:13:40;;;;;;;1999.90;999.90;;;35.70;69.90;;;;;;5072448;28;20036;-69
2022/07/02 10:16:13;;;;;;;1999.90;999.90;;;35.60;70.50;;;;;;5072684;28;20031;-74
2022/07/02 10:18:41;;;;;;;1999.90;999.90;;;35.60;68.60;;;;;;5055025;28;20123;-74
2022/07/02 10:21:07;;;;;;;1999.90;999.90;;;35.30;68.70;;;;;;5060857;28;20127;-69
2022/07/02 10:23:34;;;;;;;1999.90;999.90;;;34.60;69.30;;;;;;5053597;28;20027;-74
2022/07/02 10:26:00;;;;;;;1999.90;999.90;;;34.50;70.50;;;;;;5071732;28;20031;-74
2022/07/02 10:28:26;;;;;;;1999.90;999.90;;;35.20;70.50;;;;;;5071997;28;20483;-74
2022/07/02 10:30:53;;;;;;;1999.90;999.90;;;35.60;68.70;;;;;;5072772;28;20506;-74
2022/07/02 10:33:39;;;;;;;1999.90;999.90;;;35.90;72.40;;;;;;5072634;28;20023;-69
2022/07/02 10:36:08;;;;;;;1999.90;999.90;;;35.70;69.80;;;;;;5054939;28;20476;-69
2022/07/02 10:38:38;;;;;;;1999.90;999.90;;;35.60;68.70;;;;;;5061569;28;20079;-74
2022/07/02 10:41:04;;;;;;;1999.90;999.90;;;35.60;69.30;;;;;;5069555;28;20050;-74
2022/07/02 10:43:34;;;;;;;1999.90;999.90;;;34.60;69.40;;;;;;5061270;28;20073;-74
2022/07/02 10:46:11;;;;;;;1999.90;999.90;;;35.00;72.00;;;;;;5072471;28;20049;-68
2022/07/02 10:48:53;;;;;;;1999.90;999.90;;;35.10;69.70;;;;;;5072835;28;20499;-69
2022/07/02 10:51:27;;;;;;;1999.90;999.90;;;34.80;68.50;;;;;;5054533;28;20024;-74
2022/07/02 10:53:58;;;;;;;1999.90;999.90;;;34.60;68.20;;;;;;5059102;28;20059;-74
2022/07/02 10:56:24;;;;;;;1999.90;999.90;;;34.80;68.40;;;;;;5071405;28;20429;-74
2022/07/02 10:58:50;;;;;;;1999.90;999.90;;;35.00;71.30;;;;;;5072535;28;20020;-69
2022/07/02 11:01:23;;;;;;;1999.90;999.90;;;35.00;69.90;;;;;;5072347;28;20032;-69
2022/07/02 11:03:57;;;;;;;1999.90;999.90;;;35.40;70.90;;;;;;5072476;28;20024;-74
2022/07/02 11:06:32;;;;;;;1999.90;999.90;;;35.00;67.70;;;;;;5072504;28;20024;-74
2022/07/02 11:09:02;;;;;;;1999.90;999.90;;;34.50;68.90;;;;;;5072390;28;20423;-74
2022/07/02 11:11:40;;;;;;;1999.90;999.90;;;34.70;69.00;;;;;;5072309;28;20016;-74
2022/07/02 11:14:09;;;;;;;1999.90;999.90;;;34.70;69.40;;;;;;5063859;28;20024;-68
2022/07/02 11:16:41;;;;;;;1999.90;999.90;;;34.10;70.50;;;;;;5072298;28;20027;-68
2022/07/02 11:19:17;;;;;;;1999.90;999.90;;;33.70;71.50;;;;;;5072002;28;20060;-74
2022/07/02 11:21:43;;;;;;;1999.90;999.90;;;34.00;71.30;;;;;;5055822;28;20427;-74
2022/07/02 11:24:10;;;;;;;1999.90;999.90;;;33.00;70.80;;;;;;5052184;28;20037;-74
2022/07/02 11:26:40;;;;;;;1999.90;999.90;;;31.80;72.30;;;;;;5068584;28;20381;-68
2022/07/02 11:29:06;;;;;;;1999.90;999.90;;;31.60;73.70;;;;;;5072138;28;20116;-70
2022/07/02 11:31:36;;;;;;;1999.90;999.90;;;31.40;73.50;;;;;;5071965;28;20195;-69
2022/07/02 11:34:01;;;;;;;1999.90;999.90;;;30.60;74.50;;;;;;5070792;28;20082;-75
2022/07/02 11:36:27;;;;;;;1999.90;999.90;;;30.20;75.00;;;;;;5069105;28;20029;-75
2022/07/02 11:38:53;;;;;;;1999.90;999.90;;;30.20;74.60;;;;;;5053722;28;20036;-75
2022/07/02 11:41:23;;;;;;;1999.90;999.90;;;30.90;74.20;;;;;;5067780;28;20095;-68
2022/07/02 11:43:50;;;;;;;1999.90;999.90;;;30.90;74.70;;;;;;5063160;28;20032;-75
2022/07/02 11:46:22;;;;;;;1999.90;999.90;;;31.80;73.50;;;;;;5054165;28;20028;-76
2022/07/02 11:48:49;;;;;;;1999.90;999.90;;;30.70;73.40;;;;;;5072110;28;21020;-68
2022/07/02 11:51:15;;;;;;;1999.90;999.90;;;30.60;74.60;;;;;;5071972;28;20487;-68
2022/07/02 11:53:41;;;;;;;1999.90;999.90;;;30.20;75.10;;;;;;5057984;28;20028;-69
2022/07/02 11:56:10;;;;;;;1999.90;999.90;;;30.00;73.80;;;;;;5071260;28;20025;-74
2022/07/02 11:58:47;;;;;;;1999.90;999.90;;;30.10;74.40;;;;;;5072079;28;20394;-74
2022/07/02 12:01:19;;;;;;;1999.90;999.90;;;31.00;74.10;;;;;;5071920;28;20483;-69
2022/07/02 12:03:46;;;;;;;1999.90;999.90;;;30.90;73.40;;;;;;5066372;28;20013;-74
2022/07/02 12:06:12;;;;;;;1999.90;999.90;;;30.60;74.10;;;;;;5052684;28;20029;-69